createdAt,value
2019-05-18T00:01:58.464Z,99636.83
2019-05-18T00:04:25.804Z,99642.22
2019-05-18T00:06:52.975Z,99640.64
2019-05-18T00:09:20.136Z,99647.98
2019-05-18T00:11:47.358Z,99647.59
2019-05-18T00:14:14.490Z,99652.61
2019-05-18T00:16:42.310Z,99656.05
2019-05-18T00:19:09.526Z,99650.29
2019-05-18T00:21:36.621Z,99648.51
2019-05-18T00:24:03.772Z,99638.75
2019-05-18T00:26:31.197Z,99639.20
2019-05-18T00:28:58.344Z,99639.98
2019-05-18T00:31:25.525Z,99638.81
2019-05-18T00:33:52.701Z,99637.77
2019-05-18T00:36:19.950Z,99638.94
2019-05-18T00:38:47.170Z,99637.22
2019-05-18T00:41:14.401Z,99627.67
2019-05-18T00:43:41.545Z,99630.38
2019-05-18T00:46:08.728Z,99621.38
2019-05-18T00:48:35.912Z,99628.37
2019-05-18T00:51:03.014Z,99618.06
2019-05-18T00:53:30.151Z,99619.19
2019-05-18T00:55:57.350Z,99619.38
2019-05-18T00:58:24.515Z,99619.52
2019-05-18T01:00:51.675Z,99620.70
2019-05-18T01:03:18.863Z,99620.56
2019-05-18T01:05:45.911Z,99618.17
2019-05-18T01:08:13.012Z,99618.42
2019-05-18T01:10:40.489Z,99615.05
2019-05-18T01:13:07.676Z,99626.75
2019-05-18T01:15:35.163Z,99617.38
2019-05-18T01:18:02.609Z,99622.25
2019-05-18T01:20:29.685Z,99625.33
2019-05-18T01:22:57.262Z,99617.05
2019-05-18T01:25:24.549Z,99617.83
2019-05-18T01:27:51.977Z,99613.95
2019-05-18T01:30:20.132Z,99622.43
2019-05-18T01:32:47.529Z,99623.07
2019-05-18T01:35:14.695Z,99621.55
2019-05-18T01:37:42.187Z,99621.17
2019-05-18T01:40:10.298Z,99628.71
2019-05-18T01:42:37.473Z,99625.91
2019-05-18T01:45:16.280Z,99628.14
2019-05-18T01:47:34.011Z,99623.61
2019-05-18T01:50:01.059Z,99621.24
2019-05-18T01:52:28.207Z,99625.47
2019-05-18T01:54:55.634Z,99621.05
2019-05-18T01:57:22.825Z,99617.66
2019-05-18T01:59:49.949Z,99616.38
2019-05-18T02:02:17.131Z,99619.22
2019-05-18T02:04:44.277Z,99618.44
2019-05-18T02:07:11.439Z,99616.98
2019-05-18T02:09:38.621Z,99621.02
2019-05-18T02:12:05.832Z,99622.64
2019-05-18T02:14:33.015Z,99621.93
2019-05-18T02:17:00.193Z,99619.66
2019-05-18T02:19:27.376Z,99621.16
2019-05-18T02:21:54.927Z,99625.39
2019-05-18T02:24:22.104Z,99624.55
2019-05-18T02:26:49.240Z,99622.62
2019-05-18T02:29:16.394Z,99623.56
2019-05-18T02:31:43.584Z,99619.78
2019-05-18T02:34:10.772Z,99615.48
2019-05-18T02:36:37.830Z,99611.23
2019-05-18T02:39:06.122Z,99613.94
2019-05-18T02:41:33.320Z,99612.73
2019-05-18T02:44:00.568Z,99607.16
2019-05-18T02:46:27.741Z,99606.44
2019-05-18T02:48:54.902Z,99601.03
2019-05-18T02:51:22.032Z,99597.11
2019-05-18T02:53:49.240Z,99597.37
2019-05-18T02:56:16.414Z,99598.48
2019-05-18T02:58:43.679Z,99596.19
2019-05-18T03:01:10.882Z,99597.26
2019-05-18T03:03:38.369Z,99595.58
2019-05-18T03:06:05.530Z,99588.95
2019-05-18T03:08:32.893Z,99583.23
2019-05-18T03:11:00.076Z,99588.45
2019-05-18T03:13:27.276Z,99584.83
2019-05-18T03:15:54.735Z,99574.98
2019-05-18T03:18:21.881Z,99577.37
2019-05-18T03:20:48.976Z,99579.47
2019-05-18T03:23:16.596Z,99581.23
2019-05-18T03:25:44.053Z,99581.01
2019-05-18T03:28:11.297Z,99582.06
2019-05-18T03:30:38.492Z,99572.81
2019-05-18T03:33:05.808Z,99576.06
2019-05-18T03:35:33.060Z,99579.14
2019-05-18T03:38:00.251Z,99579.91
2019-05-18T03:40:27.412Z,99586.81
2019-05-18T03:42:54.605Z,99587.79
2019-05-18T03:45:21.940Z,99593.00
2019-05-18T03:47:49.004Z,99591.81
2019-05-18T03:50:16.189Z,99598.06
2019-05-18T03:52:43.361Z,99595.97
2019-05-18T03:55:10.586Z,99595.19
2019-05-18T03:57:37.796Z,99593.09
2019-05-18T04:00:05.433Z,99590.33
2019-05-18T04:02:32.628Z,99593.36
2019-05-18T04:04:59.782Z,99591.60
2019-05-18T04:07:26.980Z,99592.67
2019-05-18T04:09:54.431Z,99592.43
2019-05-18T04:12:21.673Z,99594.84
2019-05-18T04:14:48.936Z,99591.34
2019-05-18T04:17:16.141Z,99595.64
2019-05-18T04:19:46.845Z,99601.72
2019-05-18T04:22:13.539Z,99602.04
2019-05-18T04:24:41.383Z,99598.87
2019-05-18T04:27:09.658Z,99594.32
2019-05-18T04:29:36.931Z,99600.86
2019-05-18T04:32:04.039Z,99602.74
2019-05-18T04:34:31.253Z,99609.87
2019-05-18T04:36:58.452Z,99599.78
2019-05-18T04:39:25.956Z,99603.69
2019-05-18T04:41:55.043Z,99606.19
2019-05-18T04:44:22.739Z,99615.62
2019-05-18T04:46:51.537Z,99611.06
2019-05-18T04:49:19.666Z,99606.87
2019-05-18T04:51:47.150Z,99608.27
2019-05-18T04:54:14.578Z,99613.79
2019-05-18T04:56:43.172Z,99617.33
2019-05-18T04:59:10.833Z,99620.37
2019-05-18T05:01:38.725Z,99631.32
2019-05-18T05:04:06.382Z,99631.02
2019-05-18T05:06:34.680Z,99632.83
2019-05-18T05:09:02.374Z,99640.28
2019-05-18T05:11:29.740Z,99634.87
2019-05-18T05:13:58.881Z,99634.91
2019-05-18T05:16:31.025Z,99636.77
2019-05-18T05:19:01.081Z,99642.96
2019-05-18T05:21:30.901Z,99645.27
2019-05-18T05:23:58.690Z,99637.50
2019-05-18T05:26:26.043Z,99641.86
2019-05-18T05:28:53.758Z,99640.58
2019-05-18T05:31:21.146Z,99642.06
2019-05-18T05:33:48.637Z,99646.70
2019-05-18T05:36:16.184Z,99643.04
2019-05-18T05:38:44.476Z,99641.63
2019-05-18T05:41:16.483Z,99637.64
2019-05-18T05:43:46.817Z,99638.96
2019-05-18T05:46:14.673Z,99641.62
2019-05-18T05:48:42.100Z,99637.69
2019-05-18T05:51:09.318Z,99631.70
2019-05-18T05:53:36.585Z,99633.75
2019-05-18T05:56:03.867Z,99636.45
2019-05-18T05:58:31.103Z,99634.23
2019-05-18T06:00:58.880Z,99631.95
2019-05-18T06:03:26.196Z,99628.49
2019-05-18T06:05:53.516Z,99633.45
2019-05-18T06:08:20.992Z,99627.03
2019-05-18T06:10:48.170Z,99637.63
2019-05-18T06:13:15.892Z,99639.28
2019-05-18T06:15:43.282Z,99636.45
2019-05-18T06:18:10.847Z,99644.31
2019-05-18T06:20:50.355Z,99646.58
2019-05-18T06:23:07.870Z,99647.16
2019-05-18T06:25:35.806Z,99641.88
2019-05-18T06:28:03.243Z,99650.98
2019-05-18T06:30:30.593Z,99646.39
2019-05-18T06:32:57.855Z,99642.61
2019-05-18T06:35:25.222Z,99648.13
2019-05-18T06:37:52.596Z,99649.84
2019-05-18T06:40:19.820Z,99648.29
2019-05-18T06:42:48.478Z,99644.38
2019-05-18T06:45:15.718Z,99649.63
2019-05-18T06:47:42.818Z,99652.54
2019-05-18T06:50:12.577Z,99659.56
2019-05-18T06:52:39.384Z,99655.17
2019-05-18T06:55:06.728Z,99662.15
2019-05-18T06:57:34.472Z,99647.49
2019-05-18T07:00:02.265Z,99646.48
2019-05-18T07:02:29.720Z,99659.48
2019-05-18T07:04:57.066Z,99653.16
2019-05-18T07:07:24.288Z,99658.67
2019-05-18T07:09:51.514Z,99657.27
2019-05-18T07:12:20.132Z,99658.30
2019-05-18T07:14:47.536Z,99656.58
2019-05-18T07:17:15.423Z,99660.63
2019-05-18T07:19:42.973Z,99657.22
2019-05-18T07:22:10.420Z,99659.58
2019-05-18T07:24:37.688Z,99658.16
2019-05-18T07:27:04.992Z,99661.86
2019-05-18T07:29:32.194Z,99661.30
2019-05-18T07:32:00.041Z,99653.30
2019-05-18T07:34:27.337Z,99654.33
2019-05-18T07:36:55.054Z,99648.89
2019-05-18T07:39:22.333Z,99659.48
2019-05-18T07:41:49.640Z,99652.13
2019-05-18T07:44:16.968Z,99649.17
2019-05-18T07:46:44.358Z,99655.41
2019-05-18T07:49:13.654Z,99650.19
2019-05-18T07:51:41.634Z,99647.55
2019-05-18T07:54:09.693Z,99649.65
2019-05-18T07:56:37.235Z,99645.41
2019-05-18T07:59:04.821Z,99640.65
2019-05-18T08:01:32.218Z,99641.01
2019-05-18T08:03:59.561Z,99642.55
2019-05-18T08:06:27.275Z,99641.52
2019-05-18T08:08:54.864Z,99642.50
2019-05-18T08:11:22.128Z,99647.05
2019-05-18T08:13:49.620Z,99649.25
2019-05-18T08:16:17.150Z,99645.10
2019-05-18T08:18:44.426Z,99637.27
2019-05-18T08:21:11.643Z,99644.30
2019-05-18T08:23:39.259Z,99639.14
2019-05-18T08:26:06.742Z,99636.95
2019-05-18T08:28:34.246Z,99636.36
2019-05-18T08:31:02.643Z,99628.13
2019-05-18T08:33:29.925Z,99623.69
2019-05-18T08:35:57.164Z,99622.52
2019-05-18T08:38:25.040Z,99622.14
2019-05-18T08:40:52.283Z,99617.88
2019-05-18T08:43:20.131Z,99613.63
2019-05-18T08:45:47.367Z,99610.67
2019-05-18T08:48:15.585Z,99606.28
2019-05-18T08:50:42.965Z,99603.63
2019-05-18T08:53:10.573Z,99607.09
2019-05-18T08:55:37.825Z,99599.90
2019-05-18T08:58:05.267Z,99603.09
2019-05-18T09:00:32.842Z,99595.63
2019-05-18T09:03:00.339Z,99603.59
2019-05-18T09:05:29.512Z,99600.55
2019-05-18T09:07:57.224Z,99604.56
2019-05-18T09:10:24.522Z,99601.98
2019-05-18T09:12:51.985Z,99595.86
2019-05-18T09:15:19.392Z,99594.80
2019-05-18T09:17:46.587Z,99595.30
2019-05-18T09:20:14.175Z,99587.94
2019-05-18T09:22:41.559Z,99587.33
2019-05-18T09:25:09.795Z,99582.92
2019-05-18T09:27:37.411Z,99578.19
2019-05-18T09:30:05.861Z,99575.94
2019-05-18T09:32:33.332Z,99580.90
2019-05-18T09:35:01.138Z,99577.66
2019-05-18T09:37:28.438Z,99577.39
2019-05-18T09:39:56.100Z,99576.64
2019-05-18T09:42:23.474Z,99570.57
2019-05-18T09:44:50.711Z,99571.55
2019-05-18T09:47:18.536Z,99569.31
2019-05-18T09:49:45.965Z,99565.19
2019-05-18T09:52:13.668Z,99558.25
2019-05-18T09:54:41.507Z,99556.33
2019-05-18T09:57:09.188Z,99565.84
2019-05-18T09:59:36.536Z,99560.31
2019-05-18T10:02:03.909Z,99553.48
2019-05-18T10:04:31.373Z,99566.02
2019-05-18T10:06:59.760Z,99575.28
2019-05-18T10:09:36.978Z,99565.75
2019-05-18T10:11:56.618Z,99569.44
2019-05-18T10:14:44.098Z,99565.33
2019-05-18T10:17:11.478Z,99568.03
2019-05-18T10:19:38.966Z,99573.34
2019-05-18T10:22:06.254Z,99563.12
2019-05-18T10:24:33.676Z,99551.87
2019-05-18T10:27:02.019Z,99550.81
2019-05-18T10:29:30.019Z,99566.34
2019-05-18T10:31:57.975Z,99554.25
2019-05-18T10:34:25.250Z,99553.22
2019-05-18T10:36:52.471Z,99551.78
2019-05-18T10:39:19.688Z,99550.57
2019-05-18T10:41:46.990Z,99544.77
2019-05-18T10:44:14.236Z,99554.45
2019-05-18T10:46:41.581Z,99543.31
2019-05-18T10:49:09.156Z,99531.45
2019-05-18T10:51:36.471Z,99531.36
2019-05-18T10:54:03.743Z,99529.37
2019-05-18T10:56:31.756Z,99533.68
2019-05-18T10:58:59.136Z,99531.42
2019-05-18T11:01:28.587Z,99524.78
2019-05-18T11:03:56.110Z,99521.87
2019-05-18T11:06:23.459Z,99523.67
2019-05-18T11:09:20.761Z,99536.52
2019-05-18T11:11:57.891Z,99521.66
2019-05-18T11:14:28.099Z,99528.00
2019-05-18T11:16:55.344Z,99517.23
2019-05-18T11:19:22.634Z,99522.73
2019-05-18T11:21:50.947Z,99517.66
2019-05-18T11:24:18.302Z,99516.31
2019-05-18T11:26:45.921Z,99513.96
2019-05-18T11:29:13.171Z,99507.47
2019-05-18T11:31:41.822Z,99506.36
2019-05-18T11:34:09.056Z,99509.78
2019-05-18T11:36:36.614Z,99507.03
2019-05-18T11:39:05.927Z,99504.63
2019-05-18T11:41:33.589Z,99491.34
2019-05-18T11:44:01.251Z,99495.33
2019-05-18T11:46:29.836Z,99490.44
2019-05-18T11:48:58.602Z,99494.69
2019-05-18T11:51:25.944Z,99495.00
2019-05-18T11:53:58.384Z,99499.32
2019-05-18T11:56:22.394Z,99491.91
2019-05-18T11:58:49.700Z,99499.33
2019-05-18T12:01:16.965Z,99499.88
2019-05-18T12:03:44.169Z,99491.45
2019-05-18T12:06:11.472Z,99490.64
2019-05-18T12:08:38.703Z,99487.31
2019-05-18T12:11:05.948Z,99487.36
2019-05-18T12:13:36.356Z,99485.25
2019-05-18T12:16:03.880Z,99478.92
2019-05-18T12:18:31.269Z,99476.00
2019-05-18T12:20:58.679Z,99472.03
2019-05-18T12:23:25.891Z,99476.09
2019-05-18T12:25:53.811Z,99479.66
2019-05-18T12:28:21.056Z,99474.03
2019-05-18T12:30:48.568Z,99469.85
2019-05-18T12:33:34.395Z,99476.32
2019-05-18T12:36:01.690Z,99474.70
2019-05-18T12:38:31.243Z,99462.60
2019-05-18T12:40:59.000Z,99467.03
2019-05-18T12:43:26.413Z,99468.00
2019-05-18T12:45:54.162Z,99466.04
2019-05-18T12:48:21.978Z,99465.12
2019-05-18T12:50:49.237Z,99460.37
2019-05-18T12:53:17.797Z,99457.26
2019-05-18T12:55:45.364Z,99455.86
2019-05-18T12:58:12.778Z,99455.44
2019-05-18T13:00:40.379Z,99455.49
2019-05-18T13:03:07.580Z,99457.76
2019-05-18T13:05:35.931Z,99452.83
2019-05-18T13:08:03.300Z,99452.05
2019-05-18T13:10:30.552Z,99453.49
2019-05-18T13:12:58.446Z,99455.67
2019-05-18T13:15:26.638Z,99445.84
2019-05-18T13:17:53.852Z,99432.16
2019-05-18T13:20:21.290Z,99432.89
2019-05-18T13:22:48.573Z,99428.86
2019-05-18T13:25:16.965Z,99429.87
2019-05-18T13:27:44.714Z,99431.45
2019-05-18T13:30:12.973Z,99435.66
2019-05-18T13:32:40.221Z,99432.58
2019-05-18T13:35:08.198Z,99430.66
2019-05-18T13:37:36.259Z,99420.03
2019-05-18T13:40:03.946Z,99421.01
2019-05-18T13:42:31.346Z,99423.88
2019-05-18T13:44:58.434Z,99419.06
2019-05-18T13:47:25.684Z,99421.56
2019-05-18T13:49:53.244Z,99415.88
2019-05-18T13:52:20.485Z,99423.28
2019-05-18T13:55:02.163Z,99427.84
2019-05-18T13:57:16.974Z,99415.99
2019-05-18T13:59:44.204Z,99415.15
2019-05-18T14:02:12.395Z,99407.38
2019-05-18T14:04:39.855Z,99408.61
2019-05-18T14:07:07.104Z,99405.80
2019-05-18T14:09:34.946Z,99405.52
2019-05-18T14:12:02.221Z,99402.75
2019-05-18T14:14:29.491Z,99401.79
2019-05-18T14:16:57.289Z,99404.22
2019-05-18T14:19:25.285Z,99399.41
2019-05-18T14:21:52.745Z,99407.03
2019-05-18T14:24:20.265Z,99401.77
2019-05-18T14:26:48.627Z,99393.84
2019-05-18T14:29:16.004Z,99390.87
2019-05-18T14:31:43.675Z,99386.73
2019-05-18T14:34:11.019Z,99386.77
2019-05-18T14:36:38.362Z,99387.47
2019-05-18T14:39:05.779Z,99390.77
2019-05-18T14:41:33.062Z,99389.24
2019-05-18T14:44:00.375Z,99394.77
2019-05-18T14:46:27.638Z,99404.41
2019-05-18T14:48:55.924Z,99392.08
2019-05-18T14:51:23.329Z,99401.98
2019-05-18T14:53:53.270Z,99390.90
2019-05-18T14:56:20.914Z,99394.03
2019-05-18T14:58:48.433Z,99391.64
2019-05-18T15:01:15.712Z,99397.19
2019-05-18T15:03:44.114Z,99385.66
2019-05-18T15:06:11.498Z,99391.89
2019-05-18T15:08:38.810Z,99394.69
2019-05-18T15:11:06.149Z,99387.03
2019-05-18T15:13:33.349Z,99396.39
2019-05-18T15:16:00.718Z,99391.03
2019-05-18T15:18:28.524Z,99395.88
2019-05-18T15:20:57.710Z,99387.11
2019-05-18T15:23:25.146Z,99383.72
2019-05-18T15:25:52.496Z,99390.80
2019-05-18T15:28:19.793Z,99386.22
2019-05-18T15:30:47.047Z,99390.66
2019-05-18T15:33:14.382Z,99389.27
2019-05-18T15:35:42.100Z,99391.77
2019-05-18T15:38:09.826Z,99394.06
2019-05-18T15:40:37.564Z,99389.92
2019-05-18T15:43:05.280Z,99385.33
2019-05-18T15:45:33.086Z,99385.43
2019-05-18T15:48:00.472Z,99386.95
2019-05-18T15:50:27.756Z,99390.63
2019-05-18T15:52:55.011Z,99390.70
2019-05-18T15:55:24.160Z,99377.07
2019-05-18T15:57:51.593Z,99381.41
2019-05-18T16:00:19.976Z,99378.88
2019-05-18T16:02:48.166Z,99377.24
2019-05-18T16:05:18.862Z,99377.19
2019-05-18T16:07:46.143Z,99375.74
2019-05-18T16:10:13.913Z,99372.31
2019-05-18T16:12:41.225Z,99370.83
2019-05-18T16:15:09.043Z,99365.16
2019-05-18T16:17:39.309Z,99363.62
2019-05-18T16:20:06.057Z,99355.81
2019-05-18T16:22:33.436Z,99362.17
2019-05-18T16:25:04.540Z,99358.02
2019-05-18T16:27:31.872Z,99361.16
2019-05-18T16:30:00.968Z,99363.70
2019-05-18T16:32:31.392Z,99372.52
2019-05-18T16:35:00.307Z,99371.99
2019-05-18T16:37:29.093Z,99379.42
2019-05-18T16:39:56.536Z,99382.61
2019-05-18T16:42:25.158Z,99378.38
2019-05-18T16:44:52.893Z,99381.86
2019-05-18T16:47:21.542Z,99383.03
2019-05-18T16:49:48.843Z,99385.09
2019-05-18T16:52:16.152Z,99382.83
2019-05-18T16:54:45.244Z,99387.11
2019-05-18T16:57:13.410Z,99393.42
2019-05-18T16:59:40.864Z,99389.87
2019-05-18T17:02:08.243Z,99395.48
2019-05-18T17:04:37.967Z,99398.11
2019-05-18T17:07:07.711Z,99399.23
2019-05-18T17:09:36.406Z,99397.95
2019-05-18T17:12:06.091Z,99403.62
2019-05-18T17:14:34.326Z,99393.63
2019-05-18T17:17:02.877Z,99389.27
2019-05-18T17:19:30.229Z,99389.52
2019-05-18T17:21:57.673Z,99387.88
2019-05-18T17:24:25.407Z,99386.76
2019-05-18T17:26:53.595Z,99389.00
2019-05-18T17:29:20.993Z,99387.17
2019-05-18T17:31:48.334Z,99390.20
2019-05-18T17:34:16.275Z,99394.86
2019-05-18T17:36:43.822Z,99394.08
2019-05-18T17:39:12.507Z,99395.46
2019-05-18T17:41:39.825Z,99396.84
2019-05-18T17:44:07.053Z,99396.91
2019-05-18T17:46:34.403Z,99394.62
2019-05-18T17:49:01.705Z,99395.84
2019-05-18T17:51:30.278Z,99392.89
2019-05-18T17:53:57.698Z,99392.50
2019-05-18T17:56:24.949Z,99397.75
2019-05-18T17:58:53.865Z,99393.03
2019-05-18T18:01:21.166Z,99394.95
2019-05-18T18:03:48.593Z,99403.89
2019-05-18T18:06:17.034Z,99398.34
2019-05-18T18:08:48.636Z,99403.73
2019-05-18T18:11:16.165Z,99403.16
2019-05-18T18:13:43.723Z,99407.20
2019-05-18T18:16:10.970Z,99407.05
2019-05-18T18:18:38.185Z,99404.98
2019-05-18T18:21:05.342Z,99408.34
2019-05-18T18:23:32.719Z,99409.52
2019-05-18T18:26:00.814Z,99411.18
2019-05-18T18:28:29.220Z,99419.07
2019-05-18T18:30:57.455Z,99425.11
2019-05-18T18:33:24.907Z,99435.80
2019-05-18T18:35:52.172Z,99455.49
2019-05-18T18:38:19.435Z,99495.36
2019-05-18T18:40:46.697Z,99490.94
2019-05-18T18:43:13.928Z,99495.26
2019-05-18T18:45:42.075Z,99506.45
2019-05-18T18:48:09.458Z,99527.77
2019-05-18T18:50:36.705Z,99537.34
2019-05-18T18:53:04.032Z,99542.31
2019-05-18T18:55:31.297Z,99563.36
2019-05-18T18:57:58.802Z,99563.80
2019-05-18T19:00:26.073Z,99577.78
2019-05-18T19:02:53.609Z,99583.88
2019-05-18T19:05:21.193Z,99585.25
2019-05-18T19:07:54.337Z,99585.25
2019-05-18T19:10:25.119Z,99581.73
2019-05-18T19:12:59.420Z,99574.11
2019-05-18T19:15:27.283Z,99564.64
2019-05-18T19:17:54.954Z,99573.05
2019-05-18T19:20:22.581Z,99576.53
2019-05-18T19:22:50.704Z,99586.86
2019-05-18T19:25:18.138Z,99593.08
2019-05-18T19:27:54.610Z,99606.17
2019-05-18T19:30:17.674Z,99604.32
2019-05-18T19:32:45.005Z,99610.63
2019-05-18T19:35:13.070Z,99617.96
2019-05-18T19:37:40.425Z,99618.73
2019-05-18T19:40:08.523Z,99631.02
2019-05-18T19:42:36.272Z,99624.70
2019-05-18T19:45:04.578Z,99633.05
2019-05-18T19:47:34.649Z,99644.52
2019-05-18T19:50:03.727Z,99654.66
2019-05-18T19:52:31.448Z,99658.96
2019-05-18T19:54:58.829Z,99658.63
2019-05-18T19:57:27.699Z,99653.53
2019-05-18T19:59:54.995Z,99654.19
2019-05-18T20:02:22.313Z,99655.17
2019-05-18T20:05:06.820Z,99653.30
2019-05-18T20:07:19.221Z,99648.42
2019-05-18T20:09:46.550Z,99641.87
2019-05-18T20:12:17.590Z,99627.24
2019-05-18T20:14:44.903Z,99617.30
2019-05-18T20:17:14.774Z,99597.54
2019-05-18T20:19:42.443Z,99583.16
2019-05-18T20:22:10.133Z,99572.25
2019-05-18T20:24:38.055Z,99571.61
2019-05-18T20:27:05.459Z,99577.62
2019-05-18T20:29:33.405Z,99586.66
2019-05-18T20:32:01.025Z,99581.89
2019-05-18T20:34:28.443Z,99579.73
2019-05-18T20:36:55.629Z,99599.86
2019-05-18T20:39:22.985Z,99621.31
2019-05-18T20:41:50.753Z,99636.09
2019-05-18T20:44:18.054Z,99642.17
2019-05-18T20:47:01.718Z,99647.69
2019-05-18T20:49:32.458Z,99637.13
2019-05-18T20:51:59.708Z,99622.77
2019-05-18T20:54:27.146Z,99610.34
2019-05-18T20:56:55.781Z,99598.12
2019-05-18T20:59:23.207Z,99592.17
2019-05-18T21:01:51.167Z,99579.09
2019-05-18T21:04:18.508Z,99568.84
2019-05-18T21:06:45.907Z,99565.35
2019-05-18T21:09:13.985Z,99558.08
2019-05-18T21:11:41.403Z,99556.44
2019-05-18T21:14:09.354Z,99564.11
2019-05-18T21:16:37.644Z,99571.58
2019-05-18T21:19:05.016Z,99565.23
2019-05-18T21:21:32.391Z,99561.09
2019-05-18T21:23:59.820Z,99551.00
2019-05-18T21:26:27.032Z,99549.03
2019-05-18T21:28:59.339Z,99553.94
2019-05-18T21:31:23.689Z,99559.80
2019-05-18T21:33:51.395Z,99557.31
2019-05-18T21:36:18.635Z,99558.28
2019-05-18T21:38:45.859Z,99562.78
2019-05-18T21:41:13.147Z,99571.61
2019-05-18T21:43:40.456Z,99572.45
2019-05-18T21:46:08.173Z,99578.89
2019-05-18T21:48:37.542Z,99579.38
2019-05-18T21:51:04.839Z,99588.50
2019-05-18T21:53:33.013Z,99594.09
2019-05-18T21:56:00.309Z,99611.31
2019-05-18T21:58:27.822Z,99611.12
2019-05-18T22:00:55.292Z,99608.50
2019-05-18T22:03:22.483Z,99627.08
2019-05-18T22:05:50.690Z,99609.98
2019-05-18T22:08:20.199Z,99618.50
2019-05-18T22:10:47.442Z,99623.64
2019-05-18T22:13:14.720Z,99619.31
2019-05-18T22:15:42.718Z,99627.65
2019-05-18T22:18:23.721Z,99634.80
2019-05-18T22:20:44.072Z,99655.50
2019-05-18T22:23:09.349Z,99652.53
2019-05-18T22:25:36.677Z,99650.37
2019-05-18T22:28:04.630Z,99648.72
2019-05-18T22:30:32.907Z,99647.88
2019-05-18T22:33:00.205Z,99655.70
2019-05-18T22:35:27.549Z,99663.82
2019-05-18T22:37:54.886Z,99657.34
2019-05-18T22:40:22.146Z,99654.04
2019-05-18T22:42:49.413Z,99653.06
2019-05-18T22:45:16.666Z,99648.42
2019-05-18T22:47:44.068Z,99646.27
2019-05-18T22:50:11.553Z,99650.73
2019-05-18T22:52:39.764Z,99644.59
2019-05-18T22:55:07.595Z,99636.82
2019-05-18T22:57:37.591Z,99647.27
2019-05-18T23:00:05.949Z,99649.91
2019-05-18T23:02:35.140Z,99645.94
2019-05-18T23:05:03.347Z,99645.92
2019-05-18T23:07:31.856Z,99639.64
2019-05-18T23:10:00.763Z,99625.05
2019-05-18T23:12:28.446Z,99624.05
2019-05-18T23:14:56.099Z,99632.69
2019-05-18T23:17:24.466Z,99626.87
2019-05-18T23:19:52.780Z,99631.36
2019-05-18T23:22:20.068Z,99631.69
2019-05-18T23:24:47.322Z,99621.89
2019-05-18T23:27:19.226Z,99619.09
2019-05-18T23:29:50.183Z,99617.92
2019-05-18T23:32:18.152Z,99613.79
2019-05-18T23:34:45.417Z,99606.66
2019-05-18T23:37:13.654Z,99601.13
2019-05-18T23:39:42.705Z,99589.72
2019-05-18T23:42:10.684Z,99581.27
2019-05-18T23:44:39.509Z,99558.21
2019-05-18T23:47:07.796Z,99542.66
2019-05-18T23:49:35.522Z,99530.72
2019-05-18T23:52:05.059Z,99510.83
2019-05-18T23:54:32.166Z,99510.83
2019-05-18T23:57:00.127Z,99503.06
2019-05-18T23:59:28.040Z,99505.06
